createdAt,value
2024-03-04T00:00:38.855Z,50.89
2024-03-04T00:02:20.227Z,51.55
2024-03-04T00:04:01.740Z,51.19
2024-03-04T00:05:43.248Z,51.56
2024-03-04T00:07:24.675Z,51.06
2024-03-04T00:09:06.296Z,51.18
2024-03-04T00:10:47.734Z,51.78
2024-03-04T00:12:29.118Z,52.09
2024-03-04T00:14:10.489Z,51.23
2024-03-04T00:15:51.814Z,50.96
2024-03-04T00:17:33.186Z,50.86
2024-03-04T00:19:14.587Z,51.71
2024-03-04T00:20:55.942Z,52.34
2024-03-04T00:22:37.374Z,53.03
2024-03-04T00:24:18.795Z,54.09
2024-03-04T00:26:00.151Z,54.22
2024-03-04T00:27:41.523Z,53.69
2024-03-04T00:29:22.888Z,54.68
2024-03-04T00:31:04.405Z,55.21
2024-03-04T00:32:45.877Z,56.39
2024-03-04T00:34:27.290Z,58.23
2024-03-04T00:36:08.639Z,60.74
2024-03-04T00:37:49.993Z,61.47
2024-03-04T00:39:31.382Z,62.40
2024-03-04T00:41:12.713Z,62.35
2024-03-04T00:42:54.093Z,61.13
2024-03-04T00:44:35.460Z,60.01
2024-03-04T00:46:16.824Z,60.29
2024-03-04T00:47:58.199Z,59.22
2024-03-04T00:49:39.591Z,58.20
2024-03-04T00:51:20.969Z,57.39
2024-03-04T00:53:02.299Z,56.91
2024-03-04T00:54:43.664Z,57.03
2024-03-04T00:56:25.019Z,57.86
2024-03-04T00:58:06.386Z,59.23
2024-03-04T00:59:47.782Z,60.18
2024-03-04T01:01:29.212Z,61.34
2024-03-04T01:03:10.573Z,62.96
2024-03-04T01:04:51.958Z,63.97
2024-03-04T01:06:33.310Z,65.05
2024-03-04T01:08:14.671Z,65.23
2024-03-04T01:09:56.054Z,64.47
2024-03-04T01:11:37.468Z,64.27
2024-03-04T01:13:18.831Z,64.54
2024-03-04T01:15:00.311Z,64.37
2024-03-04T01:16:41.693Z,64.57
2024-03-04T01:18:23.112Z,63.93
2024-03-04T01:20:04.652Z,63.86
2024-03-04T01:21:46.033Z,65.08
2024-03-04T01:23:27.388Z,65.31
2024-03-04T01:25:08.793Z,65.54
2024-03-04T01:26:50.176Z,65.13
2024-03-04T01:28:31.611Z,65.97
2024-03-04T01:30:12.960Z,65.92
2024-03-04T01:31:54.342Z,64.99
2024-03-04T01:33:35.710Z,63.90
2024-03-04T01:35:17.095Z,63.25
2024-03-04T01:36:58.453Z,61.84
2024-03-04T01:38:39.854Z,62.13
2024-03-04T01:40:21.272Z,63.24
2024-03-04T01:42:02.644Z,61.57
2024-03-04T01:43:44.060Z,60.52
2024-03-04T01:45:25.408Z,59.64
2024-03-04T01:47:06.801Z,59.04
2024-03-04T01:48:48.221Z,58.32
2024-03-04T01:50:29.569Z,57.49
2024-03-04T01:52:10.926Z,57.06
2024-03-04T01:53:52.479Z,58.37
2024-03-04T01:55:33.890Z,60.63
2024-03-04T01:57:15.356Z,62.01
2024-03-04T01:58:56.725Z,62.08
2024-03-04T02:00:38.133Z,61.78
2024-03-04T02:02:19.505Z,61.23
2024-03-04T02:04:00.941Z,60.59
2024-03-04T02:05:42.361Z,59.79
2024-03-04T02:07:23.781Z,58.93
2024-03-04T02:09:05.181Z,58.55
2024-03-04T02:10:46.587Z,59.11
2024-03-04T02:12:27.996Z,58.47
2024-03-04T02:14:09.378Z,58.14
2024-03-04T02:15:50.768Z,57.14
2024-03-04T02:17:32.151Z,56.64
2024-03-04T02:19:13.549Z,56.53
2024-03-04T02:20:55.007Z,56.96
2024-03-04T02:22:36.471Z,57.51
2024-03-04T02:24:17.874Z,57.41
2024-03-04T02:25:59.261Z,57.72
2024-03-04T02:27:40.636Z,58.14
2024-03-04T02:29:22.042Z,58.05
2024-03-04T02:31:03.481Z,57.04
2024-03-04T02:32:44.989Z,56.20
2024-03-04T02:34:26.516Z,57.88
2024-03-04T02:36:07.904Z,57.32
2024-03-04T02:37:49.246Z,56.69
2024-03-04T02:39:30.638Z,57.11
2024-03-04T02:41:12.065Z,57.79
2024-03-04T02:42:53.419Z,58.82
2024-03-04T02:44:34.779Z,60.41
2024-03-04T02:46:16.167Z,60.46
2024-03-04T02:47:57.826Z,60.69
2024-03-04T02:49:39.283Z,60.95
2024-03-04T02:51:20.698Z,60.56
2024-03-04T02:53:02.703Z,60.27
2024-03-04T02:54:44.174Z,59.13
2024-03-04T02:56:25.548Z,57.90
2024-03-04T02:58:06.955Z,57.23
2024-03-04T02:59:48.372Z,56.28
2024-03-04T03:01:29.825Z,55.68
2024-03-04T03:03:11.283Z,56.32
2024-03-04T03:04:52.629Z,57.70
2024-03-04T03:06:34.030Z,57.38
2024-03-04T03:08:15.452Z,56.20
2024-03-04T03:09:56.817Z,55.22
2024-03-04T03:11:38.288Z,55.42
2024-03-04T03:13:19.642Z,55.17
2024-03-04T03:15:01.028Z,55.40
2024-03-04T03:16:42.516Z,55.83
2024-03-04T03:18:23.895Z,55.72
2024-03-04T03:20:05.244Z,55.58
2024-03-04T03:21:46.747Z,55.23
2024-03-04T03:23:28.158Z,55.41
2024-03-04T03:25:10.676Z,54.63
2024-03-04T03:26:52.104Z,55.05
2024-03-04T03:28:33.510Z,55.00
2024-03-04T03:30:14.855Z,54.68
2024-03-04T03:31:56.228Z,55.05
2024-03-04T03:33:37.590Z,56.88
2024-03-04T03:35:18.957Z,57.19
2024-03-04T03:37:00.381Z,58.53
2024-03-04T03:38:41.780Z,57.47
2024-03-04T03:40:23.252Z,57.75
2024-03-04T03:42:04.724Z,59.89
2024-03-04T03:43:46.074Z,61.29
2024-03-04T03:45:27.463Z,62.36
2024-03-04T03:47:08.841Z,63.89
2024-03-04T03:48:50.204Z,63.73
2024-03-04T03:50:31.565Z,63.00
2024-03-04T03:52:13.029Z,61.79
2024-03-04T03:53:54.415Z,60.86
2024-03-04T03:55:35.903Z,61.23
2024-03-04T03:57:17.337Z,62.32
2024-03-04T03:58:58.746Z,63.50
2024-03-04T04:00:40.159Z,63.26
2024-03-04T04:02:21.555Z,62.46
2024-03-04T04:04:02.965Z,62.11
2024-03-04T04:05:44.334Z,61.74
2024-03-04T04:07:25.736Z,61.76
2024-03-04T04:09:07.101Z,61.16
2024-03-04T04:10:48.511Z,60.38
2024-03-04T04:12:42.959Z,59.92
2024-03-04T04:14:24.356Z,59.18
2024-03-04T04:16:05.780Z,61.58
2024-03-04T04:17:47.213Z,61.46
2024-03-04T04:19:28.673Z,61.27
2024-03-04T04:21:10.073Z,61.02
2024-03-04T04:22:51.445Z,61.89
2024-03-04T04:24:32.853Z,63.48
2024-03-04T04:26:14.248Z,64.01
2024-03-04T04:27:55.734Z,63.98
2024-03-04T04:29:37.161Z,65.12
2024-03-04T04:31:18.554Z,66.01
2024-03-04T04:33:00.016Z,66.02
2024-03-04T04:34:41.440Z,64.79
2024-03-04T04:36:22.857Z,63.45
2024-03-04T04:38:04.221Z,62.00
2024-03-04T04:39:45.578Z,60.99
2024-03-04T04:41:26.952Z,63.47
2024-03-04T04:43:08.341Z,63.08
2024-03-04T04:44:49.693Z,62.82
2024-03-04T04:46:31.065Z,61.87
2024-03-04T04:48:12.449Z,61.96
2024-03-04T04:49:53.846Z,61.08
2024-03-04T04:51:35.253Z,59.79
2024-03-04T04:53:16.653Z,58.99
2024-03-04T04:54:58.123Z,58.51
2024-03-04T04:56:39.491Z,57.67
2024-03-04T04:58:20.945Z,57.08
2024-03-04T05:00:02.369Z,56.38
2024-03-04T05:01:43.923Z,55.84
2024-03-04T05:03:39.613Z,55.37
2024-03-04T05:05:26.795Z,55.89
2024-03-04T05:07:08.275Z,56.61
2024-03-04T05:08:49.618Z,57.84
2024-03-04T05:10:30.994Z,57.92
2024-03-04T05:12:12.328Z,58.44
2024-03-04T05:13:53.777Z,59.90
2024-03-04T05:15:35.207Z,60.85
2024-03-04T05:17:16.554Z,59.32
2024-03-04T05:18:58.136Z,59.40
2024-03-04T05:20:50.602Z,60.18
2024-03-04T05:22:37.631Z,62.64
2024-03-04T05:24:19.199Z,63.64
2024-03-04T05:26:00.597Z,64.23
2024-03-04T05:27:41.973Z,65.38
2024-03-04T05:29:23.361Z,66.98
2024-03-04T05:31:04.727Z,67.44
2024-03-04T05:32:46.131Z,68.94
2024-03-04T05:34:27.614Z,68.78
2024-03-04T05:36:09.049Z,68.52
2024-03-04T05:37:50.448Z,68.64
2024-03-04T05:39:31.808Z,69.05
2024-03-04T05:41:13.176Z,70.08
2024-03-04T05:42:54.526Z,69.87
2024-03-04T05:44:35.864Z,69.28
2024-03-04T05:46:17.313Z,68.25
2024-03-04T05:47:58.773Z,66.92
2024-03-04T05:49:40.228Z,64.98
2024-03-04T05:51:21.674Z,63.56
2024-03-04T05:53:03.029Z,62.89
2024-03-04T05:54:44.373Z,62.48
2024-03-04T05:56:25.747Z,63.64
2024-03-04T05:58:07.148Z,62.49
2024-03-04T05:59:48.543Z,61.03
2024-03-04T06:01:29.983Z,59.81
2024-03-04T06:03:11.378Z,59.72
2024-03-04T06:04:52.769Z,60.47
2024-03-04T06:06:34.174Z,60.47
2024-03-04T06:08:15.509Z,59.88
2024-03-04T06:09:56.850Z,59.44
2024-03-04T06:11:38.332Z,58.82
2024-03-04T06:13:19.772Z,59.91
2024-03-04T06:15:01.112Z,60.24
2024-03-04T06:16:42.523Z,60.20
2024-03-04T06:18:23.886Z,59.42
2024-03-04T06:20:05.251Z,58.62
2024-03-04T06:21:51.750Z,58.49
2024-03-04T06:23:38.481Z,58.58
2024-03-04T06:25:19.881Z,58.47
2024-03-04T06:27:01.225Z,57.51
2024-03-04T06:28:42.655Z,57.61
2024-03-04T06:30:24.072Z,56.78
2024-03-04T06:32:05.503Z,56.68
2024-03-04T06:33:52.854Z,57.46
2024-03-04T06:35:35.526Z,58.52
2024-03-04T06:37:16.906Z,58.17
2024-03-04T06:38:58.261Z,58.24
2024-03-04T06:40:39.705Z,57.61
2024-03-04T06:42:21.062Z,57.05
2024-03-04T06:44:02.406Z,56.96
2024-03-04T06:45:43.724Z,56.72
2024-03-04T06:47:25.117Z,58.62
2024-03-04T06:49:06.488Z,62.24
2024-03-04T06:50:47.847Z,63.85
2024-03-04T06:52:29.259Z,64.55
2024-03-04T06:54:10.643Z,63.61
2024-03-04T06:55:51.981Z,61.71
2024-03-04T06:57:34.547Z,59.61
2024-03-04T06:59:16.083Z,58.69
2024-03-04T07:00:57.478Z,59.26
2024-03-04T07:02:38.859Z,61.46
2024-03-04T07:04:20.221Z,63.31
2024-03-04T07:06:01.564Z,62.99
2024-03-04T07:07:42.922Z,62.70
2024-03-04T07:09:24.330Z,63.08
2024-03-04T07:11:05.735Z,63.06
2024-03-04T07:12:47.180Z,62.20
2024-03-04T07:14:28.537Z,63.21
2024-03-04T07:16:09.868Z,60.57
2024-03-04T07:17:51.326Z,61.09
2024-03-04T07:19:32.706Z,61.87
2024-03-04T07:21:14.097Z,62.11
2024-03-04T07:22:55.435Z,61.61
2024-03-04T07:24:36.823Z,60.86
2024-03-04T07:26:20.724Z,61.22
2024-03-04T07:28:02.491Z,60.86
2024-03-04T07:29:48.835Z,60.27
2024-03-04T07:31:34.198Z,58.35
2024-03-04T07:33:17.546Z,56.75
2024-03-04T07:34:59.127Z,55.89
2024-03-04T07:36:41.119Z,57.00
2024-03-04T07:38:22.993Z,58.79
2024-03-04T07:40:04.450Z,59.22
2024-03-04T07:41:45.805Z,58.07
2024-03-04T07:43:30.267Z,58.77
2024-03-04T07:45:11.682Z,57.40
2024-03-04T07:46:53.053Z,56.13
2024-03-04T07:48:34.463Z,54.81
2024-03-04T07:50:15.836Z,53.21
2024-03-04T07:51:57.206Z,54.72
2024-03-04T07:53:38.660Z,54.06
2024-03-04T07:55:22.787Z,53.39
2024-03-04T07:57:10.648Z,53.23
2024-03-04T07:58:59.006Z,52.33
2024-03-04T08:00:40.383Z,52.54
2024-03-04T08:02:21.752Z,53.77
2024-03-04T08:04:03.237Z,54.79
2024-03-04T08:05:44.620Z,56.25
2024-03-04T08:07:25.994Z,57.00
2024-03-04T08:09:07.359Z,58.21
2024-03-04T08:10:48.802Z,57.90
2024-03-04T08:12:30.403Z,58.48
2024-03-04T08:14:14.723Z,58.75
2024-03-04T08:15:58.860Z,58.25
2024-03-04T08:17:49.900Z,56.68
2024-03-04T08:19:36.758Z,55.99
2024-03-04T08:21:18.172Z,54.34
2024-03-04T08:22:59.844Z,53.98
2024-03-04T08:24:41.444Z,55.17
2024-03-04T08:26:22.867Z,54.86
2024-03-04T08:28:04.869Z,55.23
2024-03-04T08:29:48.225Z,54.36
2024-03-04T08:31:29.812Z,52.75
2024-03-04T08:33:11.240Z,52.30
2024-03-04T08:34:52.710Z,51.95
2024-03-04T08:36:34.105Z,50.40
2024-03-04T08:38:15.430Z,50.22
2024-03-04T08:39:56.820Z,52.33
2024-03-04T08:41:38.191Z,53.83
2024-03-04T08:43:19.682Z,54.26
2024-03-04T08:45:01.095Z,55.67
2024-03-04T08:46:42.556Z,55.94
2024-03-04T08:48:23.992Z,55.90
2024-03-04T08:50:05.382Z,53.40
2024-03-04T08:51:46.739Z,53.96
2024-03-04T08:53:28.099Z,53.71
2024-03-04T08:55:09.511Z,53.34
2024-03-04T08:56:50.837Z,51.90
2024-03-04T08:58:32.199Z,51.59
2024-03-04T09:00:13.589Z,50.18
2024-03-04T09:01:55.034Z,48.64
2024-03-04T09:03:36.437Z,46.68
2024-03-04T09:05:17.855Z,45.62
2024-03-04T09:06:59.219Z,43.77
2024-03-04T09:08:40.557Z,42.40
2024-03-04T09:10:21.940Z,40.98
2024-03-04T09:12:03.300Z,40.35
2024-03-04T09:13:44.770Z,38.73
2024-03-04T09:15:26.315Z,36.87
2024-03-04T09:17:07.661Z,38.32
2024-03-04T09:18:49.119Z,38.14
2024-03-04T09:20:30.632Z,36.88
2024-03-04T09:22:12.013Z,36.36
2024-03-04T09:23:53.405Z,36.89
2024-03-04T09:25:34.856Z,35.26
2024-03-04T09:27:16.241Z,36.14
2024-03-04T09:28:57.603Z,36.02
2024-03-04T09:30:38.945Z,34.78
2024-03-04T09:32:20.274Z,35.00
2024-03-04T09:34:01.694Z,33.36
2024-03-04T09:35:43.156Z,31.56
2024-03-04T09:37:24.565Z,30.64
2024-03-04T09:39:05.920Z,29.04
2024-03-04T09:40:47.391Z,29.30
2024-03-04T09:42:28.807Z,29.21
2024-03-04T09:44:10.168Z,28.31
2024-03-04T09:45:51.539Z,29.19
2024-03-04T09:47:32.933Z,29.04
2024-03-04T09:49:14.342Z,29.87
2024-03-04T09:50:55.728Z,28.79
2024-03-04T09:52:37.122Z,28.76
2024-03-04T09:54:18.483Z,28.41
2024-03-04T09:55:59.874Z,30.04
2024-03-04T09:57:41.222Z,28.54
2024-03-04T09:59:23.042Z,28.27
2024-03-04T10:01:04.633Z,27.64
2024-03-04T10:02:46.022Z,25.96
2024-03-04T10:04:27.481Z,25.44
2024-03-04T10:06:08.870Z,26.48
2024-03-04T10:07:50.366Z,26.96
2024-03-04T10:09:32.131Z,27.83
2024-03-04T10:11:13.683Z,27.39
2024-03-04T10:12:55.071Z,28.40
2024-03-04T10:14:36.398Z,26.82
2024-03-04T10:16:17.784Z,26.30
2024-03-04T10:17:59.188Z,25.81
2024-03-04T10:19:40.623Z,24.54
2024-03-04T10:21:22.009Z,23.53
2024-03-04T10:23:03.362Z,24.81
2024-03-04T10:24:44.686Z,24.79
2024-03-04T10:26:26.056Z,24.89
2024-03-04T10:28:07.457Z,23.80
2024-03-04T10:29:48.846Z,25.15
2024-03-04T10:31:30.258Z,24.22
2024-03-04T10:33:11.699Z,24.12
2024-03-04T10:34:53.095Z,23.99
2024-03-04T10:36:34.429Z,23.73
2024-03-04T10:38:15.777Z,23.27
2024-03-04T10:39:57.109Z,23.40
2024-03-04T10:41:38.473Z,22.42
2024-03-04T10:43:19.838Z,22.58
2024-03-04T10:45:01.265Z,23.58
2024-03-04T10:46:42.664Z,26.29
2024-03-04T10:48:24.066Z,27.08
2024-03-04T10:50:05.400Z,26.71
2024-03-04T10:51:55.019Z,27.81
2024-03-04T10:53:44.879Z,29.00
2024-03-04T10:55:26.291Z,29.15
2024-03-04T10:57:07.673Z,29.57
2024-03-04T10:58:49.109Z,29.61
2024-03-04T11:00:30.495Z,30.28
2024-03-04T11:02:12.047Z,29.49
2024-03-04T11:03:53.477Z,29.48
2024-03-04T11:05:35.287Z,29.86
2024-03-04T11:07:16.826Z,29.99
2024-03-04T11:08:58.675Z,28.87
2024-03-04T11:10:40.524Z,29.12
2024-03-04T11:12:21.960Z,29.92
2024-03-04T11:14:03.297Z,29.97
2024-03-04T11:15:44.834Z,29.99
2024-03-04T11:17:26.286Z,29.94
2024-03-04T11:19:07.660Z,29.85
2024-03-04T11:20:49.001Z,29.91
2024-03-04T11:22:30.392Z,28.76
2024-03-04T11:24:11.749Z,28.50
2024-03-04T11:25:53.178Z,27.73
2024-03-04T11:27:34.625Z,27.86
2024-03-04T11:29:15.987Z,28.11
2024-03-04T11:30:57.348Z,26.96
2024-03-04T11:32:38.884Z,27.72
2024-03-04T11:34:20.336Z,27.04
2024-03-04T11:36:01.723Z,26.98
2024-03-04T11:37:43.120Z,26.25
2024-03-04T11:39:24.522Z,24.94
2024-03-04T11:41:05.902Z,23.63
2024-03-04T11:42:47.278Z,23.45
2024-03-04T11:44:28.991Z,23.66
2024-03-04T11:46:10.486Z,23.29
2024-03-04T11:47:51.945Z,26.87
2024-03-04T11:49:33.485Z,29.55
2024-03-04T11:51:14.950Z,30.00
2024-03-04T11:52:56.317Z,30.73
2024-03-04T11:54:37.805Z,31.52
2024-03-04T11:56:19.233Z,32.52
2024-03-04T11:58:00.592Z,31.85
2024-03-04T11:59:41.971Z,31.18
2024-03-04T12:01:23.549Z,32.09
2024-03-04T12:03:05.083Z,30.93
2024-03-04T12:04:46.470Z,29.55
2024-03-04T12:06:27.898Z,29.33
2024-03-04T12:08:21.458Z,28.81
2024-03-04T12:10:16.663Z,27.32
2024-03-04T12:11:59.353Z,28.41
2024-03-04T12:13:40.745Z,29.30
2024-03-04T12:15:22.098Z,28.26
2024-03-04T12:17:03.468Z,27.59
2024-03-04T12:18:44.844Z,27.58
2024-03-04T12:20:26.175Z,27.89
2024-03-04T12:22:07.592Z,28.34
2024-03-04T12:23:48.988Z,27.73
2024-03-04T12:25:30.378Z,27.87
2024-03-04T12:27:11.773Z,28.00
2024-03-04T12:28:53.174Z,28.28
2024-03-04T12:30:34.567Z,28.08
2024-03-04T12:32:16.020Z,27.12
2024-03-04T12:33:57.385Z,27.74
2024-03-04T12:35:38.724Z,27.34
2024-03-04T12:37:20.110Z,27.78
2024-03-04T12:39:01.463Z,28.02
2024-03-04T12:40:42.830Z,28.00
2024-03-04T12:42:24.233Z,29.09
2024-03-04T12:44:05.595Z,26.67
2024-03-04T12:45:46.961Z,26.35
2024-03-04T12:47:28.340Z,26.55
2024-03-04T12:49:09.751Z,26.33
2024-03-04T12:50:51.120Z,25.32
2024-03-04T12:52:32.495Z,25.74
2024-03-04T12:54:13.853Z,24.79
2024-03-04T12:55:55.242Z,25.24
2024-03-04T12:57:36.694Z,23.99
2024-03-04T12:59:18.057Z,25.21
2024-03-04T13:00:59.416Z,24.47
2024-03-04T13:02:40.807Z,21.21
2024-03-04T13:04:22.215Z,21.40
2024-03-04T13:06:03.622Z,23.37
2024-03-04T13:07:45.491Z,22.13
2024-03-04T13:09:27.060Z,20.77
2024-03-04T13:11:08.518Z,20.98
2024-03-04T13:12:49.903Z,21.93
2024-03-04T13:14:31.317Z,22.47
2024-03-04T13:16:12.737Z,22.62
2024-03-04T13:17:54.174Z,25.09
2024-03-04T13:19:35.623Z,26.83
2024-03-04T13:21:16.952Z,26.76
2024-03-04T13:22:58.373Z,26.82
2024-03-04T13:24:39.796Z,25.75
2024-03-04T13:26:21.221Z,26.88
2024-03-04T13:28:02.614Z,26.55
2024-03-04T13:29:44.037Z,24.95
2024-03-04T13:31:25.454Z,25.65
2024-03-04T13:33:06.867Z,25.90
2024-03-04T13:34:48.341Z,24.48
2024-03-04T13:36:29.675Z,24.07
2024-03-04T13:38:11.052Z,24.69
2024-03-04T13:39:52.456Z,24.80
2024-03-04T13:41:33.814Z,24.82
2024-03-04T13:43:19.575Z,25.76
2024-03-04T13:45:01.930Z,26.31
2024-03-04T13:46:43.309Z,27.27
2024-03-04T13:48:24.785Z,26.36
2024-03-04T13:50:06.229Z,26.20
2024-03-04T13:51:47.610Z,26.42
2024-03-04T13:53:28.984Z,27.08
2024-03-04T13:55:10.519Z,27.84
2024-03-04T13:56:51.966Z,27.91
2024-03-04T13:58:33.371Z,26.65
2024-03-04T14:00:15.828Z,27.12
2024-03-04T14:01:57.792Z,26.74
2024-03-04T14:03:39.201Z,27.30
2024-03-04T14:05:20.579Z,27.50
2024-03-04T14:07:01.958Z,26.95
2024-03-04T14:08:43.333Z,27.77
2024-03-04T14:10:24.838Z,27.24
2024-03-04T14:12:06.222Z,28.44
2024-03-04T14:13:47.678Z,28.47
2024-03-04T14:15:29.129Z,28.62
2024-03-04T14:17:10.493Z,28.67
2024-03-04T14:18:51.839Z,28.84
2024-03-04T14:20:33.354Z,28.36
2024-03-04T14:22:14.773Z,28.62
2024-03-04T14:23:56.123Z,27.34
2024-03-04T14:25:37.555Z,27.35
2024-03-04T14:27:18.921Z,26.50
2024-03-04T14:29:02.967Z,25.68
2024-03-04T14:30:45.957Z,25.50
2024-03-04T14:32:27.512Z,26.15
2024-03-04T14:34:09.022Z,25.60
2024-03-04T14:35:50.439Z,25.58
2024-03-04T14:37:31.883Z,24.72
2024-03-04T14:39:13.277Z,25.71
2024-03-04T14:40:57.521Z,26.48
2024-03-04T14:42:40.100Z,26.73
2024-03-04T14:44:21.446Z,27.07
2024-03-04T14:46:02.821Z,26.79
2024-03-04T14:47:44.189Z,27.20
2024-03-04T14:49:25.689Z,26.69
2024-03-04T14:51:07.141Z,28.31
2024-03-04T14:52:48.552Z,28.21
2024-03-04T14:54:29.912Z,28.93
2024-03-04T14:56:11.442Z,29.16
2024-03-04T14:57:52.900Z,29.32
2024-03-04T14:59:34.948Z,30.87
2024-03-04T15:01:17.069Z,31.07
2024-03-04T15:02:58.439Z,31.27
2024-03-04T15:04:39.961Z,31.97
2024-03-04T15:06:21.562Z,32.84
2024-03-04T15:08:02.919Z,32.88
2024-03-04T15:09:45.761Z,32.51
2024-03-04T15:11:27.265Z,33.15
2024-03-04T15:13:08.676Z,33.22
2024-03-04T15:14:50.061Z,33.93
2024-03-04T15:16:31.460Z,34.32
2024-03-04T15:18:18.462Z,33.84
2024-03-04T15:20:03.482Z,33.81
2024-03-04T15:21:44.856Z,33.79
2024-03-04T15:23:26.257Z,32.80
2024-03-04T15:25:07.612Z,32.64
2024-03-04T15:26:49.014Z,32.34
2024-03-04T15:28:30.486Z,32.23
2024-03-04T15:30:11.917Z,32.27
2024-03-04T15:31:53.328Z,31.98
2024-03-04T15:33:34.836Z,31.10
2024-03-04T15:35:16.169Z,32.70
2024-03-04T15:36:57.664Z,35.96
2024-03-04T15:38:39.081Z,37.59
2024-03-04T15:40:20.462Z,38.72
2024-03-04T15:42:01.902Z,39.48
2024-03-04T15:43:43.335Z,39.83
2024-03-04T15:45:24.742Z,40.50
2024-03-04T15:47:06.221Z,41.50
2024-03-04T15:48:47.547Z,42.23
2024-03-04T15:50:28.874Z,43.02
2024-03-04T15:52:10.334Z,43.81
2024-03-04T15:53:51.739Z,44.77
2024-03-04T15:55:33.317Z,44.63
2024-03-04T15:57:14.754Z,45.63
2024-03-04T15:58:56.115Z,46.17
2024-03-04T16:00:37.561Z,46.08
2024-03-04T16:02:18.938Z,46.55
2024-03-04T16:04:00.293Z,46.70
2024-03-04T16:05:41.646Z,46.75
2024-03-04T16:07:23.517Z,47.29
2024-03-04T16:09:05.157Z,47.21
2024-03-04T16:10:46.655Z,47.37
2024-03-04T16:12:28.470Z,46.45
2024-03-04T16:14:10.019Z,46.63
2024-03-04T16:15:54.410Z,46.49
2024-03-04T16:17:37.692Z,46.42
2024-03-04T16:19:19.138Z,47.49
2024-03-04T16:21:00.689Z,46.79
2024-03-04T16:22:42.269Z,46.61
2024-03-04T16:24:23.632Z,44.77
2024-03-04T16:26:04.981Z,44.13
2024-03-04T16:27:46.633Z,42.17
2024-03-04T16:29:28.168Z,41.14
2024-03-04T16:31:09.693Z,40.92
2024-03-04T16:32:51.236Z,40.48
2024-03-04T16:34:32.672Z,41.10
2024-03-04T16:36:14.043Z,41.53
2024-03-04T16:37:55.607Z,40.89
2024-03-04T16:39:37.113Z,40.02
2024-03-04T16:41:18.488Z,39.63
2024-03-04T16:42:59.866Z,39.17
2024-03-04T16:44:41.221Z,38.46
2024-03-04T16:46:22.634Z,38.16
2024-03-04T16:48:04.044Z,39.26
2024-03-04T16:49:45.439Z,37.46
2024-03-04T16:51:26.800Z,37.21
2024-03-04T16:53:08.201Z,36.80
2024-03-04T16:54:49.546Z,37.12
2024-03-04T16:56:30.885Z,37.26
2024-03-04T16:58:12.281Z,37.91
2024-03-04T16:59:54.261Z,38.38
2024-03-04T17:01:38.882Z,38.66
2024-03-04T17:03:23.640Z,39.63
2024-03-04T17:05:05.185Z,38.57
2024-03-04T17:06:46.544Z,38.82
2024-03-04T17:08:27.957Z,38.95
2024-03-04T17:10:09.337Z,38.64
2024-03-04T17:11:50.765Z,38.82
2024-03-04T17:13:32.163Z,39.42
2024-03-04T17:15:13.769Z,40.07
2024-03-04T17:16:55.358Z,40.94
2024-03-04T17:18:37.206Z,41.19
2024-03-04T17:20:18.804Z,41.06
2024-03-04T17:22:00.331Z,40.34
2024-03-04T17:23:42.064Z,41.09
2024-03-04T17:25:23.691Z,43.53
2024-03-04T17:27:05.314Z,46.79
2024-03-04T17:28:46.778Z,47.67
2024-03-04T17:30:28.190Z,47.37
2024-03-04T17:32:09.515Z,48.67
2024-03-04T17:33:50.886Z,49.60
2024-03-04T17:35:32.243Z,51.88
2024-03-04T17:37:13.631Z,51.67
2024-03-04T17:38:57.448Z,52.17
2024-03-04T17:40:39.272Z,52.85
2024-03-04T17:42:20.931Z,54.11
2024-03-04T17:44:02.565Z,52.62
2024-03-04T17:45:43.932Z,52.24
2024-03-04T17:47:25.296Z,52.20
2024-03-04T17:49:06.823Z,52.06
2024-03-04T17:50:49.189Z,50.69
2024-03-04T17:52:30.587Z,50.21
2024-03-04T17:54:12.386Z,49.69
2024-03-04T17:55:54.051Z,50.63
2024-03-04T17:57:35.612Z,49.88
2024-03-04T17:59:17.000Z,49.13
2024-03-04T18:00:58.532Z,47.50
2024-03-04T18:02:39.942Z,49.00
2024-03-04T18:04:21.394Z,48.28
2024-03-04T18:06:02.789Z,48.58
2024-03-04T18:07:44.216Z,49.05
2024-03-04T18:09:25.636Z,49.67
2024-03-04T18:11:07.232Z,49.31
2024-03-04T18:12:48.679Z,47.88
2024-03-04T18:14:30.162Z,47.51
2024-03-04T18:16:11.588Z,47.68
2024-03-04T18:17:53.051Z,47.76
2024-03-04T18:19:34.451Z,47.93
2024-03-04T18:21:15.819Z,46.79
2024-03-04T18:22:57.471Z,46.91
2024-03-04T18:24:38.983Z,46.68
2024-03-04T18:26:20.397Z,45.50
2024-03-04T18:28:01.798Z,45.01
2024-03-04T18:29:43.151Z,44.87
2024-03-04T18:31:24.671Z,44.57
2024-03-04T18:33:06.273Z,43.84
2024-03-04T18:34:47.969Z,43.52
2024-03-04T18:36:29.534Z,42.96
2024-03-04T18:38:10.877Z,43.16
2024-03-04T18:39:52.280Z,43.55
2024-03-04T18:41:33.954Z,44.50
2024-03-04T18:43:15.516Z,46.52
2024-03-04T18:44:56.908Z,48.12
2024-03-04T18:46:38.445Z,48.44
2024-03-04T18:48:19.966Z,49.29
2024-03-04T18:50:01.400Z,48.66
2024-03-04T18:51:42.805Z,48.08
2024-03-04T18:53:24.189Z,46.84
2024-03-04T18:55:05.538Z,47.17
2024-03-04T18:56:46.915Z,49.21
2024-03-04T18:58:28.379Z,50.58
2024-03-04T19:00:09.812Z,51.57
2024-03-04T19:01:51.342Z,50.56
2024-03-04T19:03:33.004Z,49.83
2024-03-04T19:05:14.453Z,49.50
2024-03-04T19:06:55.919Z,48.26
2024-03-04T19:08:37.291Z,47.57
2024-03-04T19:10:18.855Z,46.82
2024-03-04T19:12:00.434Z,46.05
2024-03-04T19:13:41.961Z,44.92
2024-03-04T19:15:23.476Z,44.41
2024-03-04T19:17:04.886Z,43.78
2024-03-04T19:18:46.234Z,43.90
2024-03-04T19:20:27.652Z,44.45
2024-03-04T19:22:09.060Z,44.87
2024-03-04T19:23:50.531Z,46.10
2024-03-04T19:25:31.980Z,45.60
2024-03-04T19:27:13.487Z,46.28
2024-03-04T19:28:54.906Z,48.09
2024-03-04T19:30:36.330Z,47.06
2024-03-04T19:32:17.688Z,46.99
2024-03-04T19:33:59.045Z,46.84
2024-03-04T19:35:40.423Z,46.90
2024-03-04T19:37:21.836Z,46.44
2024-03-04T19:39:03.192Z,46.25
2024-03-04T19:40:44.623Z,46.55
2024-03-04T19:42:26.167Z,46.47
2024-03-04T19:44:07.578Z,46.02
2024-03-04T19:45:48.996Z,47.57
2024-03-04T19:47:31.093Z,48.88
2024-03-04T19:49:12.635Z,48.57
2024-03-04T19:50:54.102Z,47.51
2024-03-04T19:52:35.608Z,47.35
2024-03-04T19:54:17.110Z,47.11
2024-03-04T19:55:58.484Z,47.42
2024-03-04T19:57:40.995Z,47.64
2024-03-04T19:59:22.808Z,46.54
2024-03-04T20:01:04.460Z,45.57
2024-03-04T20:02:45.838Z,44.62
2024-03-04T20:04:27.379Z,45.70
2024-03-04T20:06:08.830Z,45.25
2024-03-04T20:07:50.212Z,44.74
2024-03-04T20:09:31.742Z,43.83
2024-03-04T20:11:13.760Z,43.81
2024-03-04T20:12:55.269Z,44.93
2024-03-04T20:14:36.706Z,44.54
2024-03-04T20:16:18.136Z,44.74
2024-03-04T20:17:59.792Z,48.63
2024-03-04T20:19:41.389Z,52.39
2024-03-04T20:21:22.796Z,52.81
2024-03-04T20:23:04.320Z,51.62
2024-03-04T20:24:45.765Z,50.32
2024-03-04T20:26:27.163Z,50.49
2024-03-04T20:28:08.537Z,50.71
2024-03-04T20:29:49.943Z,50.51
2024-03-04T20:31:31.358Z,50.91
2024-03-04T20:33:12.809Z,52.49
2024-03-04T20:34:54.270Z,52.53
2024-03-04T20:36:35.879Z,51.03
2024-03-04T20:38:17.267Z,50.57
2024-03-04T20:39:58.623Z,50.35
2024-03-04T20:41:39.987Z,52.77
2024-03-04T20:43:21.396Z,53.14
2024-03-04T20:45:03.033Z,53.77
2024-03-04T20:46:44.462Z,53.07
2024-03-04T20:48:25.909Z,52.01
2024-03-04T20:50:07.358Z,51.18
2024-03-04T20:51:48.719Z,49.95
2024-03-04T20:53:30.195Z,48.54
2024-03-04T20:55:11.621Z,48.83
2024-03-04T20:56:53.003Z,48.08
2024-03-04T20:58:34.565Z,48.26
2024-03-04T21:00:15.973Z,48.50
2024-03-04T21:01:57.401Z,48.00
2024-03-04T21:03:38.845Z,47.38
2024-03-04T21:05:20.259Z,48.09
2024-03-04T21:07:01.629Z,49.84
2024-03-04T21:08:42.990Z,50.91
2024-03-04T21:10:24.490Z,50.53
2024-03-04T21:12:05.921Z,49.04
2024-03-04T21:13:47.332Z,46.79
2024-03-04T21:15:28.703Z,46.93
2024-03-04T21:17:10.103Z,48.31
2024-03-04T21:18:51.475Z,48.48
2024-03-04T21:20:32.940Z,48.73
2024-03-04T21:22:14.497Z,48.80
2024-03-04T21:23:56.058Z,48.28
2024-03-04T21:25:37.455Z,48.46
2024-03-04T21:27:18.856Z,49.38
2024-03-04T21:29:00.219Z,51.29
2024-03-04T21:30:41.653Z,49.87
2024-03-04T21:32:23.091Z,50.06
2024-03-04T21:34:04.457Z,51.81
2024-03-04T21:35:45.837Z,53.27
2024-03-04T21:37:31.832Z,52.80
2024-03-04T21:39:13.724Z,51.01
2024-03-04T21:40:55.180Z,50.71
2024-03-04T21:42:36.578Z,51.56
2024-03-04T21:44:17.941Z,51.56
2024-03-04T21:45:59.298Z,52.04
2024-03-04T21:47:40.687Z,52.64
2024-03-04T21:49:22.074Z,51.83